sensor_id;sensor_type;location;lat;lon;timestamp;P1;durP1;ratioP1;P2;durP2;ratioP2
29414;SDS011;20303;48.302;11.914;2023-07-29T00:05:20;4.72;;;3.15;;
29414;SDS011;20303;48.302;11.914;2023-07-29T00:15:21;4.82;;;3.38;;
29414;SDS011;20303;48.302;11.914;2023-07-29T00:25:22;8.00;;;3.17;;
29414;SDS011;20303;48.302;11.914;2023-07-29T00:35:23;4.20;;;3.10;;
29414;SDS011;20303;48.302;11.914;2023-07-29T00:45:24;4.70;;;3.33;;
29414;SDS011;20303;48.302;11.914;2023-07-29T00:55:27;5.50;;;3.40;;
29414;SDS011;20303;48.302;11.914;2023-07-29T01:05:30;3.50;;;3.03;;
29414;SDS011;20303;48.302;11.914;2023-07-29T01:25:43;4.73;;;3.37;;
29414;SDS011;20303;48.302;11.914;2023-07-29T01:35:48;5.65;;;3.20;;
29414;SDS011;20303;48.302;11.914;2023-07-29T01:45:54;5.22;;;3.50;;
29414;SDS011;20303;48.302;11.914;2023-07-29T01:55:55;5.55;;;3.45;;
29414;SDS011;20303;48.302;11.914;2023-07-29T02:05:57;5.10;;;3.33;;
29414;SDS011;20303;48.302;11.914;2023-07-29T02:15:58;5.10;;;3.25;;
29414;SDS011;20303;48.302;11.914;2023-07-29T02:25:59;4.95;;;3.00;;
29414;SDS011;20303;48.302;11.914;2023-07-29T02:36:00;4.88;;;3.13;;
29414;SDS011;20303;48.302;11.914;2023-07-29T02:46:02;4.65;;;3.05;;
29414;SDS011;20303;48.302;11.914;2023-07-29T02:56:03;4.47;;;3.00;;
29414;SDS011;20303;48.302;11.914;2023-07-29T03:06:07;6.22;;;3.17;;
29414;SDS011;20303;48.302;11.914;2023-07-29T03:26:11;4.13;;;2.90;;
29414;SDS011;20303;48.302;11.914;2023-07-29T03:36:12;4.97;;;3.22;;
29414;SDS011;20303;48.302;11.914;2023-07-29T03:46:14;4.03;;;2.95;;
29414;SDS011;20303;48.302;11.914;2023-07-29T03:56:19;5.80;;;3.10;;
29414;SDS011;20303;48.302;11.914;2023-07-29T04:06:20;5.13;;;2.90;;
29414;SDS011;20303;48.302;11.914;2023-07-29T04:16:22;4.95;;;2.90;;
29414;SDS011;20303;48.302;11.914;2023-07-29T04:26:23;4.05;;;2.88;;
29414;SDS011;20303;48.302;11.914;2023-07-29T04:36:24;4.13;;;2.65;;
29414;SDS011;20303;48.302;11.914;2023-07-29T04:46:25;3.40;;;2.35;;
29414;SDS011;20303;48.302;11.914;2023-07-29T04:56:26;3.28;;;2.53;;
29414;SDS011;20303;48.302;11.914;2023-07-29T05:06:27;2.83;;;2.30;;
29414;SDS011;20303;48.302;11.914;2023-07-29T05:16:28;3.15;;;2.65;;
29414;SDS011;20303;48.302;11.914;2023-07-29T05:26:29;3.05;;;2.70;;
29414;SDS011;20303;48.302;11.914;2023-07-29T05:36:30;2.92;;;2.28;;
29414;SDS011;20303;48.302;11.914;2023-07-29T05:46:31;3.55;;;2.22;;
29414;SDS011;20303;48.302;11.914;2023-07-29T05:56:33;4.18;;;2.30;;
29414;SDS011;20303;48.302;11.914;2023-07-29T06:06:34;2.67;;;2.33;;
29414;SDS011;20303;48.302;11.914;2023-07-29T06:16:35;4.18;;;2.33;;
29414;SDS011;20303;48.302;11.914;2023-07-29T06:26:36;3.88;;;2.55;;
29414;SDS011;20303;48.302;11.914;2023-07-29T06:36:37;4.55;;;2.60;;
29414;SDS011;20303;48.302;11.914;2023-07-29T06:46:38;3.85;;;2.13;;
29414;SDS011;20303;48.302;11.914;2023-07-29T06:56:39;3.80;;;2.50;;
29414;SDS011;20303;48.302;11.914;2023-07-29T07:06:40;4.72;;;2.30;;
29414;SDS011;20303;48.302;11.914;2023-07-29T07:16:41;2.67;;;2.20;;
29414;SDS011;20303;48.302;11.914;2023-07-29T07:26:42;3.45;;;2.20;;
29414;SDS011;20303;48.302;11.914;2023-07-29T07:36:43;6.10;;;2.30;;
29414;SDS011;20303;48.302;11.914;2023-07-29T07:46:44;5.07;;;2.65;;
29414;SDS011;20303;48.302;11.914;2023-07-29T07:56:45;4.90;;;2.50;;
29414;SDS011;20303;48.302;11.914;2023-07-29T08:06:46;3.80;;;2.90;;
29414;SDS011;20303;48.302;11.914;2023-07-29T08:16:47;4.90;;;2.90;;
29414;SDS011;20303;48.302;11.914;2023-07-29T08:26:48;4.82;;;2.92;;
29414;SDS011;20303;48.302;11.914;2023-07-29T08:36:49;5.00;;;3.03;;
29414;SDS011;20303;48.302;11.914;2023-07-29T08:46:50;6.25;;;2.80;;
29414;SDS011;20303;48.302;11.914;2023-07-29T08:56:53;2.88;;;2.50;;
29414;SDS011;20303;48.302;11.914;2023-07-29T09:06:54;4.57;;;3.05;;
29414;SDS011;20303;48.302;11.914;2023-07-29T09:16:56;3.60;;;2.80;;
29414;SDS011;20303;48.302;11.914;2023-07-29T09:26:57;5.50;;;2.97;;
29414;SDS011;20303;48.302;11.914;2023-07-29T09:36:58;4.70;;;3.10;;
29414;SDS011;20303;48.302;11.914;2023-07-29T09:47:00;4.63;;;2.85;;
29414;SDS011;20303;48.302;11.914;2023-07-29T09:57:01;3.88;;;3.00;;
29414;SDS011;20303;48.302;11.914;2023-07-29T10:07:02;4.68;;;3.30;;
29414;SDS011;20303;48.302;11.914;2023-07-29T10:17:07;4.07;;;3.25;;
29414;SDS011;20303;48.302;11.914;2023-07-29T10:27:08;4.60;;;3.63;;
29414;SDS011;20303;48.302;11.914;2023-07-29T10:37:13;4.85;;;3.17;;
29414;SDS011;20303;48.302;11.914;2023-07-29T10:47:15;4.10;;;3.70;;
29414;SDS011;20303;48.302;11.914;2023-07-29T11:07:44;7.25;;;6.53;;
29414;SDS011;20303;48.302;11.914;2023-07-29T11:17:50;7.05;;;5.60;;
29414;SDS011;20303;48.302;11.914;2023-07-29T11:27:56;4.43;;;2.97;;
29414;SDS011;20303;48.302;11.914;2023-07-29T11:37:58;5.72;;;3.00;;
29414;SDS011;20303;48.302;11.914;2023-07-29T11:48:01;4.68;;;3.28;;
29414;SDS011;20303;48.302;11.914;2023-07-29T11:58:02;4.90;;;3.30;;
29414;SDS011;20303;48.302;11.914;2023-07-29T12:08:03;6.03;;;3.33;;
29414;SDS011;20303;48.302;11.914;2023-07-29T12:18:04;4.82;;;3.30;;
29414;SDS011;20303;48.302;11.914;2023-07-29T12:28:05;5.72;;;3.22;;
29414;SDS011;20303;48.302;11.914;2023-07-29T12:38:06;4.22;;;3.00;;
29414;SDS011;20303;48.302;11.914;2023-07-29T12:48:08;3.38;;;2.67;;
29414;SDS011;20303;48.302;11.914;2023-07-29T12:58:09;3.78;;;2.90;;
29414;SDS011;20303;48.302;11.914;2023-07-29T13:08:10;3.65;;;2.88;;
29414;SDS011;20303;48.302;11.914;2023-07-29T13:18:11;3.72;;;2.55;;
29414;SDS011;20303;48.302;11.914;2023-07-29T13:28:13;3.65;;;3.10;;
29414;SDS011;20303;48.302;11.914;2023-07-29T13:38:14;3.50;;;2.67;;
29414;SDS011;20303;48.302;11.914;2023-07-29T13:48:16;3.83;;;2.85;;
29414;SDS011;20303;48.302;11.914;2023-07-29T13:58:17;5.47;;;3.17;;
29414;SDS011;20303;48.302;11.914;2023-07-29T14:08:18;5.20;;;3.10;;
29414;SDS011;20303;48.302;11.914;2023-07-29T14:18:19;4.30;;;2.88;;
29414;SDS011;20303;48.302;11.914;2023-07-29T14:28:20;3.85;;;3.10;;
29414;SDS011;20303;48.302;11.914;2023-07-29T14:38:21;4.55;;;3.10;;
29414;SDS011;20303;48.302;11.914;2023-07-29T14:48:23;3.72;;;2.85;;
29414;SDS011;20303;48.302;11.914;2023-07-29T14:58:24;3.90;;;2.90;;
29414;SDS011;20303;48.302;11.914;2023-07-29T15:08:25;7.00;;;5.20;;
29414;SDS011;20303;48.302;11.914;2023-07-29T15:18:26;8.32;;;6.68;;
29414;SDS011;20303;48.302;11.914;2023-07-29T15:28:29;10.18;;;7.35;;
29414;SDS011;20303;48.302;11.914;2023-07-29T15:38:31;10.55;;;7.60;;
29414;SDS011;20303;48.302;11.914;2023-07-29T15:48:32;8.77;;;6.35;;
29414;SDS011;20303;48.302;11.914;2023-07-29T15:58:33;10.02;;;6.28;;
29414;SDS011;20303;48.302;11.914;2023-07-29T16:08:34;8.35;;;5.43;;
29414;SDS011;20303;48.302;11.914;2023-07-29T16:18:35;6.43;;;4.93;;
29414;SDS011;20303;48.302;11.914;2023-07-29T16:28:36;7.53;;;3.97;;
29414;SDS011;20303;48.302;11.914;2023-07-29T16:38:37;4.97;;;3.47;;
29414;SDS011;20303;48.302;11.914;2023-07-29T16:48:38;3.55;;;3.10;;
29414;SDS011;20303;48.302;11.914;2023-07-29T16:58:39;4.38;;;3.25;;
29414;SDS011;20303;48.302;11.914;2023-07-29T17:08:40;5.10;;;3.20;;
29414;SDS011;20303;48.302;11.914;2023-07-29T17:18:41;6.22;;;3.05;;
29414;SDS011;20303;48.302;11.914;2023-07-29T17:28:42;6.63;;;3.25;;
29414;SDS011;20303;48.302;11.914;2023-07-29T17:38:44;8.30;;;3.08;;
29414;SDS011;20303;48.302;11.914;2023-07-29T17:48:45;7.55;;;3.97;;
29414;SDS011;20303;48.302;11.914;2023-07-29T17:58:46;5.50;;;4.10;;
29414;SDS011;20303;48.302;11.914;2023-07-29T18:08:47;6.07;;;3.90;;
29414;SDS011;20303;48.302;11.914;2023-07-29T18:18:48;5.47;;;3.80;;
29414;SDS011;20303;48.302;11.914;2023-07-29T18:28:49;5.15;;;3.80;;
29414;SDS011;20303;48.302;11.914;2023-07-29T18:38:50;6.50;;;3.53;;
29414;SDS011;20303;48.302;11.914;2023-07-29T18:48:51;6.70;;;3.63;;
29414;SDS011;20303;48.302;11.914;2023-07-29T18:58:52;5.85;;;3.72;;
29414;SDS011;20303;48.302;11.914;2023-07-29T19:08:53;6.03;;;3.90;;
29414;SDS011;20303;48.302;11.914;2023-07-29T19:18:55;4.68;;;3.60;;
29414;SDS011;20303;48.302;11.914;2023-07-29T19:28:56;4.47;;;3.40;;
29414;SDS011;20303;48.302;11.914;2023-07-29T19:38:58;5.20;;;3.50;;
29414;SDS011;20303;48.302;11.914;2023-07-29T19:48:59;4.70;;;3.15;;
29414;SDS011;20303;48.302;11.914;2023-07-29T19:59:00;3.95;;;3.20;;
29414;SDS011;20303;48.302;11.914;2023-07-29T20:09:02;4.28;;;3.13;;
29414;SDS011;20303;48.302;11.914;2023-07-29T20:19:03;3.95;;;3.03;;
29414;SDS011;20303;48.302;11.914;2023-07-29T20:29:04;4.68;;;3.20;;
29414;SDS011;20303;48.302;11.914;2023-07-29T20:39:05;3.13;;;2.80;;
29414;SDS011;20303;48.302;11.914;2023-07-29T20:49:07;3.92;;;2.70;;
29414;SDS011;20303;48.302;11.914;2023-07-29T20:59:08;4.03;;;2.80;;
29414;SDS011;20303;48.302;11.914;2023-07-29T21:09:11;3.38;;;2.70;;
29414;SDS011;20303;48.302;11.914;2023-07-29T21:19:13;3.55;;;2.80;;
29414;SDS011;20303;48.302;11.914;2023-07-29T21:29:14;3.25;;;2.80;;
29414;SDS011;20303;48.302;11.914;2023-07-29T21:39:16;3.50;;;2.70;;
29414;SDS011;20303;48.302;11.914;2023-07-29T21:49:17;4.28;;;2.70;;
29414;SDS011;20303;48.302;11.914;2023-07-29T21:59:18;2.95;;;2.60;;
29414;SDS011;20303;48.302;11.914;2023-07-29T22:09:19;2.97;;;2.60;;
29414;SDS011;20303;48.302;11.914;2023-07-29T22:19:20;3.45;;;2.70;;
29414;SDS011;20303;48.302;11.914;2023-07-29T22:29:21;3.33;;;2.60;;
29414;SDS011;20303;48.302;11.914;2023-07-29T22:39:22;3.88;;;2.50;;
29414;SDS011;20303;48.302;11.914;2023-07-29T22:49:23;4.90;;;2.63;;
29414;SDS011;20303;48.302;11.914;2023-07-29T22:59:24;2.55;;;2.33;;
29414;SDS011;20303;48.302;11.914;2023-07-29T23:09:25;2.88;;;2.47;;
29414;SDS011;20303;48.302;11.914;2023-07-29T23:19:26;3.00;;;2.70;;
29414;SDS011;20303;48.302;11.914;2023-07-29T23:29:27;4.28;;;2.67;;
29414;SDS011;20303;48.302;11.914;2023-07-29T23:39:29;3.25;;;2.50;;
29414;SDS011;20303;48.302;11.914;2023-07-29T23:49:30;4.50;;;2.42;;
29414;SDS011;20303;48.302;11.914;2023-07-29T23:59:31;3.22;;;2.53;;
